Observations
| Time | Sensor | AQI | SAQ | Temp °C | Hum % | Pres Pa | CO μg/m³ | H₂S μg/m³ | NO μg/m³ | NO₂ μg/m³ | O₃ μg/m³ | SO₂ μg/m³ | CO₂e PPM | VOC PPM | PM1 μg/m³ | PM2.5 μg/m³ | PM4 μg/m³ | PM10 μg/m³ | TPS µm |
|---|---|---|---|---|---|---|---|---|---|---|---|---|---|---|---|---|---|---|---|
| Tuesday 11 August 2026 | |||||||||||||||||||
| 16:16 | Trim Patrick St | 3 | 39.1 | 20 | 69,838 | 0 | 0 | 0 | 13.87 | 77.22 | 26.73 | 2 | 9.1 | 10.01 | |||||
| 16:16 | Trim Market St | 3 | 42.5 | 16 | 67,333 | 0 | 0 | 0 | 21.32 | 87.92 | 5.93 | 0 | 3.91 | 4.3 | |||||
| 16:15 | Trim Patrick St | 3 | 39.1 | 20 | 69,802 | 0 | 0 | 0 | 14.79 | 165.3 | 26.01 | 2 | 9.15 | 10.06 | |||||
| 16:14 | Trim Patrick St | 3 | 39.1 | 21 | 69,787 | 0 | 0 | 0 | 13.98 | 95.79 | 26.07 | 2 | 9.07 | 9.98 | |||||
| 16:14 | Trim Market St | 3 | 42.4 | 16 | 67,288 | 0 | 0 | 0 | 14.96 | 82.34 | 8.1 | 0.71 | 3.89 | 4.28 | |||||
| 16:13 | Trim Patrick St | 3 | 39 | 20 | 69,799 | 0 | 0 | 0 | 14.58 | 161.24 | 26.18 | 2 | 8.32 | 9.16 | |||||
| 16:12 | Trim Patrick St | 3 | 39 | 21 | 69,812 | 0 | 0 | 0 | 13.84 | 109.56 | 27.66 | 2 | 9.05 | 9.95 | |||||
| 16:12 | Trim Market St | 3 | 42.3 | 16 | 67,318 | 0 | 0 | 0 | 13.75 | 63.97 | 9.42 | 0 | 3.89 | 4.28 | |||||
| 16:11 | Trim Patrick St | 3 | 39 | 22 | 69,797 | 0 | 0 | 0 | 12.94 | 70.65 | 25.09 | 2 | 9.03 | 9.94 | |||||
| 16:10 | Trim Patrick St | 3 | 39 | 22 | 69,810 | 0 | 0 | 0 | 14.12 | 84.55 | 26.65 | 2.86 | 9.02 | 9.92 | |||||
| 16:09 | Trim Patrick St | 3 | 38.9 | 20 | 69,826 | 0 | 0 | 0 | 14 | 90.34 | 25.17 | 2 | 8.3 | 9.13 | |||||
| 16:08 | Trim Patrick St | 3 | 38.9 | 20 | 69,812 | 0 | 0 | 0 | 14.56 | 108.51 | 26.5 | 2 | 8.27 | 9.1 | |||||
| 16:08 | Trim Market St | 3 | 42.3 | 16 | 67,308 | 0 | 5.17 | 0 | 15.09 | 93.44 | 8.34 | 0.71 | 3.9 | 4.29 | |||||
| 16:07 | Trim Market St | 3 | 42.3 | 16 | 67,300 | 0 | 0 | 0 | 17.06 | 104.31 | 6.65 | 0.71 | 4.46 | 4.91 | |||||
| 16:06 | Trim Patrick St | 3 | 38.8 | 21 | 69,846 | 0 | 0 | 0 | 14.55 | 92.13 | 24.77 | 2 | 8.26 | 9.09 | |||||
| 16:06 | Trim Market St | 3 | 42.4 | 16 | 67,288 | 0 | 0 | 0 | 14.87 | 77.78 | 8.61 | 0.71 | 3.9 | 4.29 | |||||
| 16:05 | Trim Patrick St | 3 | 38.8 | 21 | 69,842 | 0 | 0 | 0 | 15.32 | 122.65 | 24.26 | 2 | 8.26 | 9.08 | |||||
| 16:05 | Trim Market St | 3 | 42.4 | 16 | 67,306 | 0 | 0 | 0 | 15.59 | 74.63 | 6.21 | 0 | 3.9 | 4.29 | |||||
| 16:04 | Trim Patrick St | 3 | 38.8 | 22 | 69,808 | 0 | 0 | 0 | 13.12 | 68.46 | 25.16 | 2 | 8.21 | 9.03 | |||||
| 16:04 | Trim Market St | 3 | 42.4 | 16 | 67,324 | 0 | 0 | 0 | 17.42 | 97.46 | 5.94 | 0 | 3.34 | 3.68 | |||||